Terminal Aerodrome Forecast
Issued by NWS Pueblo, CO

Home | Current Version | Previous Version | Text Only | Print | Product List | Glossary On
Versions: 1 2 3 4 5 6 7 8 9 10 11 12 13 14 15 16 17 18 19 20 21 22 23 24 25 26 27 28 29 30 31 32 33 34 35 36
617
FTUS45 KPUB 271153
TAFALS
TAF
KALS 271153Z 2712/2812 VRB04KT P6SM FEW250
     FM271600 18007KT P6SM FEW140 BKN250
     FM272000 22013KT P6SM SCT060 BKN140
     FM280300 18010KT P6SM VCSH SCT030 BKN060=

USA.gov is the U.S. government's official web portal to all federal, state and local government web resources and services.